Time;durP1;ratioP1;P1;durP2;ratioP2;P2;SDS_P1;SDS_P2;PMS_P1;PMS_P2;Temp;Humidity;BMP_temperature;BMP_pressure;BME280_temperature;BME280_humidity;BME280_pressure;Samples;Min_cycle;Max_cycle;Signal;HPM_P1;HPM_P2
2022/08/21 00:01:46;;;;;;;;;;;;;;;22.98;100.00;97906.06;5120486;28;19923;-63
2022/08/21 00:04:12;;;;;;;;;;;;;;;23.00;100.00;97901.06;5119311;28;19935;-61
2022/08/21 00:06:39;;;;;;;;;;;;;;;22.99;100.00;97899.50;5120555;28;19946;-61
2022/08/21 00:09:07;;;;;;;;;;;;;;;23.00;100.00;97890.97;5122779;28;19924;-62
2022/08/21 00:11:34;;;;;;;;;;;;;;;22.99;100.00;97889.38;5121974;28;19930;-61
2022/08/21 00:14:02;;;;;;;;;;;;;;;23.00;100.00;97901.06;5119151;28;19920;-62
2022/08/21 00:16:28;;;;;;;;;;;;;;;23.00;100.00;97896.41;5119036;28;19970;-64
2022/08/21 00:18:55;;;;;;;;;;;;;;;23.00;100.00;97890.16;5110849;28;19962;-61
2022/08/21 00:21:22;;;;;;;;;;;;;;;22.97;100.00;97888.13;5110734;28;19924;-64
2022/08/21 00:23:48;;;;;;;;;;;;;;;22.95;100.00;97885.78;5113276;28;20023;-61
2022/08/21 00:26:15;;;;;;;;;;;;;;;22.95;100.00;97885.78;5130155;27;20000;-61
2022/08/21 00:28:41;;;;;;;;;;;;;;;22.95;100.00;97895.88;5120672;28;19991;-61
2022/08/21 00:31:09;;;;;;;;;;;;;;;22.95;100.00;97893.94;5122498;28;19970;-63
2022/08/21 00:33:35;;;;;;;;;;;;;;;22.95;100.00;97882.25;5121555;28;20715;-62
2022/08/21 00:36:02;;;;;;;;;;;;;;;22.96;100.00;97889.28;5118883;28;19988;-61
2022/08/21 00:38:28;;;;;;;;;;;;;;;22.96;100.00;97881.13;5118820;28;19927;-60
2022/08/21 00:40:56;;;;;;;;;;;;;;;22.94;100.00;97876.00;5110512;28;20000;-61
2022/08/21 00:43:24;;;;;;;;;;;;;;;22.83;100.00;97883.06;5092561;28;19987;-61
2022/08/21 00:45:51;;;;;;;;;;;;;;;22.54;100.00;97872.41;5110379;28;19920;-62
2022/08/21 00:48:18;;;;;;;;;;;;;;;22.28;100.00;97872.75;5110495;28;19951;-63
2022/08/21 00:50:47;;;;;;;;;;;;;;;22.24;100.00;97874.56;5110257;28;19932;-61
2022/08/21 00:53:14;;;;;;;;;;;;;;;22.47;100.00;97869.44;5110634;28;19983;-60
2022/08/21 00:55:41;;;;;;;;;;;;;;;22.60;100.00;97871.84;5132967;28;19983;-60
2022/08/21 00:58:08;;;;;;;;;;;;;;;22.71;100.00;97874.13;5118841;28;19931;-61
2022/08/21 01:00:38;;;;;;;;;;;;;;;22.80;100.00;97867.44;5119433;28;19920;-61
2022/08/21 01:03:07;;;;;;;;;;;;;;;22.85;100.00;97852.75;5122351;28;19924;-62
2022/08/21 01:05:34;;;;;;;;;;;;;;;22.87;100.00;97858.69;5121533;28;19947;-62
2022/08/21 01:08:01;;;;;;;;;;;;;;;22.88;100.00;97861.03;5118733;28;19959;-62
2022/08/21 01:10:27;;;;;;;;;;;;;;;22.92;100.00;97861.16;5118587;28;19946;-61
2022/08/21 01:12:55;;;;;;;;;;;;;;;22.88;100.00;97862.97;5122142;28;19953;-62
2022/08/21 01:15:23;;;;;;;;;;;;;;;22.86;100.00;97857.88;5121975;28;19924;-61
2022/08/21 01:17:51;;;;;;;;;;;;;;;22.87;100.00;97858.69;5119106;28;20667;-61
2022/08/21 01:20:17;;;;;;;;;;;;;;;22.84;100.00;97851.97;5118463;28;19931;-62
2022/08/21 01:22:45;;;;;;;;;;;;;;;22.84;100.00;97849.25;5120579;28;19950;-61
2022/08/21 01:25:13;;;;;;;;;;;;;;;22.85;100.00;97855.50;5118285;28;19924;-62
2022/08/21 01:27:39;;;;;;;;;;;;;;;22.80;100.00;97851.09;5120541;28;20319;-63
2022/08/21 01:30:09;;;;;;;;;;;;;;;22.82;100.00;97854.25;5118569;28;19927;-61
2022/08/21 01:32:36;;;;;;;;;;;;;;;22.82;100.00;97853.44;5101160;28;19966;-62
2022/08/21 01:35:04;;;;;;;;;;;;;;;22.81;100.00;97846.44;5121857;28;19924;-64
2022/08/21 01:37:30;;;;;;;;;;;;;;;22.69;100.00;97855.41;5121330;28;20296;-61
2022/08/21 01:39:58;;;;;;;;;;;;;;;22.70;100.00;97857.00;5118941;28;19978;-62
2022/08/21 01:42:25;;;;;;;;;;;;;;;22.68;100.00;97856.56;5122036;28;19985;-62
2022/08/21 01:44:51;;;;;;;;;;;;;;;22.69;100.00;97857.31;5125198;28;20300;-62
2022/08/21 01:47:17;;;;;;;;;;;;;;;22.73;100.00;97856.31;5125646;28;19966;-62
2022/08/21 01:49:44;;;;;;;;;;;;;;;22.72;100.00;97864.81;5123507;28;19927;-62
2022/08/21 01:52:11;;;;;;;;;;;;;;;22.67;100.00;97870.50;5121822;28;19970;-60
2022/08/21 01:54:37;;;;;;;;;;;;;;;22.71;100.00;97871.41;5110681;28;19996;-60
2022/08/21 01:57:06;;;;;;;;;;;;;;;22.74;100.00;97868.81;5118238;28;20350;-61
2022/08/21 01:59:32;;;;;;;;;;;;;;;22.77;100.00;97870.84;5124559;28;20007;-61
2022/08/21 02:01:58;;;;;;;;;;;;;;;22.73;100.00;97863.69;5121620;28;19959;-61
2022/08/21 02:04:25;;;;;;;;;;;;;;;22.47;100.00;97870.25;5121566;28;19995;-60
2022/08/21 02:06:51;;;;;;;;;;;;;;;22.05;100.00;97858.81;5124559;28;19957;-61
2022/08/21 02:09:18;;;;;;;;;;;;;;;21.97;100.00;97861.63;5125014;28;19924;-60
2022/08/21 02:11:44;;;;;;;;;;;;;;;21.96;100.00;97865.47;5122565;28;19931;-60
2022/08/21 02:14:13;;;;;;;;;;;;;;;21.83;100.00;97855.69;5121362;28;20458;-60
2022/08/21 02:16:40;;;;;;;;;;;;;;;21.74;100.00;97855.78;5122465;28;19924;-61
2022/08/21 02:19:06;;;;;;;;;;;;;;;21.54;100.00;97856.63;5124784;28;19963;-61
2022/08/21 02:21:32;;;;;;;;;;;;;;;21.69;100.00;97855.22;5124052;28;19926;-61
2022/08/21 02:23:59;;;;;;;;;;;;;;;21.71;100.00;97844.78;5123968;28;19966;-60
2022/08/21 02:26:26;;;;;;;;;;;;;;;21.85;100.00;97862.34;5116647;28;19942;-60
2022/08/21 02:28:52;;;;;;;;;;;;;;;22.03;100.00;97850.19;5124249;28;19931;-61
2022/08/21 02:31:20;;;;;;;;;;;;;;;22.11;100.00;97858.56;5124512;28;20579;-61
2022/08/21 02:33:47;;;;;;;;;;;;;;;22.27;100.00;97851.34;5121928;28;19927;-61
2022/08/21 02:36:13;;;;;;;;;;;;;;;22.38;100.00;97850.53;5120706;28;19988;-60
2022/08/21 02:38:40;;;;;;;;;;;;;;;22.47;100.00;97851.19;5121849;28;20748;-61
2022/08/21 02:41:08;;;;;;;;;;;;;;;22.55;100.00;97853.03;5124358;28;19935;-60
2022/08/21 02:43:35;;;;;;;;;;;;;;;22.60;100.00;97854.72;5123350;28;19923;-61
2022/08/21 02:46:01;;;;;;;;;;;;;;;22.48;100.00;97844.63;5120430;28;19971;-61
2022/08/21 02:48:30;;;;;;;;;;;;;;;22.38;100.00;97847.00;5120536;28;19932;-61
2022/08/21 02:50:57;;;;;;;;;;;;;;;22.49;100.00;97850.88;5120435;28;19928;-61
2022/08/21 02:53:24;;;;;;;;;;;;;;;22.53;100.00;97855.28;5101597;28;19931;-65
2022/08/21 02:55:51;;;;;;;;;;;;;;;22.59;100.00;97847.69;5135950;27;19962;-61
2022/08/21 02:58:18;;;;;;;;;;;;;;;22.60;100.00;97852.00;5120158;28;19959;-60
2022/08/21 03:00:45;;;;;;;;;;;;;;;22.57;100.00;97853.47;5122218;28;19959;-61
2022/08/21 03:03:12;;;;;;;;;;;;;;;22.62;100.00;97847.00;5124011;28;19975;-61
2022/08/21 03:05:41;;;;;;;;;;;;;;;22.65;100.00;97840.91;5122488;28;19923;-60
2022/08/21 03:08:09;;;;;;;;;;;;;;;22.64;100.00;97843.94;5120625;28;19960;-61
2022/08/21 03:10:35;;;;;;;;;;;;;;;22.51;100.00;97852.13;5120923;28;19920;-61
2022/08/21 03:13:03;;;;;;;;;;;;;;;22.33;100.00;97850.78;5123512;28;19975;-60
2022/08/21 03:15:30;;;;;;;;;;;;;;;22.47;100.00;97850.41;5105251;28;19931;-62
2022/08/21 03:17:56;;;;;;;;;;;;;;;22.46;100.00;97857.81;5111362;28;19988;-60
2022/08/21 03:20:25;;;;;;;;;;;;;;;22.23;100.00;97867.53;5111551;28;19963;-60
2022/08/21 03:22:53;;;;;;;;;;;;;;;21.98;100.00;97872.16;5111447;28;19962;-61
2022/08/21 03:25:20;;;;;;;;;;;;;;;21.58;100.00;97862.19;5132657;27;20035;-60
2022/08/21 03:27:47;;;;;;;;;;;;;;;21.53;100.00;97868.63;5120774;28;21140;-61
2022/08/21 03:30:13;;;;;;;;;;;;;;;21.74;100.00;97863.13;5119610;28;19984;-60
2022/08/21 03:32:40;;;;;;;;;;;;;;;21.99;100.00;97856.66;5120926;28;19931;-61
2022/08/21 03:35:07;;;;;;;;;;;;;;;22.13;100.00;97862.53;5123064;28;19954;-60
2022/08/21 03:37:34;;;;;;;;;;;;;;;22.26;100.00;97861.41;5122099;28;19996;-61
2022/08/21 03:40:02;;;;;;;;;;;;;;;22.30;100.00;97859.63;5119655;28;19924;-62
2022/08/21 03:42:28;;;;;;;;;;;;;;;22.32;100.00;97859.25;5119621;28;19951;-60
2022/08/21 03:44:54;;;;;;;;;;;;;;;22.42;100.00;97869.69;5119602;28;19931;-61
2022/08/21 03:47:21;;;;;;;;;;;;;;;22.43;100.00;97854.97;5119566;28;19952;-61
2022/08/21 03:49:48;;;;;;;;;;;;;;;22.48;100.00;97874.56;5121975;28;19939;-61
2022/08/21 03:52:15;;;;;;;;;;;;;;;22.44;100.00;97865.50;5122803;28;19923;-61
2022/08/21 03:54:41;;;;;;;;;;;;;;;22.48;100.00;97868.34;5129716;27;20026;-61
2022/08/21 03:57:10;;;;;;;;;;;;;;;22.46;100.00;97863.25;5122588;28;19931;-62
2022/08/21 03:59:36;;;;;;;;;;;;;;;22.46;100.00;97860.53;5121624;28;19923;-61
2022/08/21 04:02:05;;;;;;;;;;;;;;;22.41;100.00;97868.91;5119232;28;20571;-61
2022/08/21 04:04:31;;;;;;;;;;;;;;;22.41;100.00;97868.91;5118941;28;19955;-61
2022/08/21 04:06:58;;;;;;;;;;;;;;;22.41;100.00;97874.34;5118735;28;19928;-60
2022/08/21 04:09:24;;;;;;;;;;;;;;;22.35;100.00;97875.69;5119016;28;19992;-60
2022/08/21 04:11:51;;;;;;;;;;;;;;;22.30;100.00;97875.94;5122044;28;20022;-61
2022/08/21 04:14:19;;;;;;;;;;;;;;;22.25;100.00;97875.38;5122394;28;19927;-61
2022/08/21 04:16:45;;;;;;;;;;;;;;;22.34;100.00;97878.78;5120161;28;19945;-60
2022/08/21 04:19:12;;;;;;;;;;;;;;;22.38;100.00;97885.09;5100993;28;19983;-60
2022/08/21 04:21:39;;;;;;;;;;;;;;;22.41;100.00;97874.34;5120049;28;20443;-60
2022/08/21 04:24:07;;;;;;;;;;;;;;;22.36;100.00;97871.84;5126145;27;19987;-61
2022/08/21 04:26:34;;;;;;;;;;;;;;;22.38;100.00;97869.56;5125356;27;19924;-60
2022/08/21 04:29:00;;;;;;;;;;;;;;;22.19;100.00;97880.22;5122698;28;19930;-60
2022/08/21 04:31:28;;;;;;;;;;;;;;;22.29;100.00;97884.44;5122300;28;19935;-61
2022/08/21 04:33:56;;;;;;;;;;;;;;;22.22;100.00;97881.50;5110181;28;19924;-61
2022/08/21 04:36:22;;;;;;;;;;;;;;;22.18;100.00;97889.53;5110129;28;19924;-60
2022/08/21 04:38:49;;;;;;;;;;;;;;;22.22;100.00;97895.88;5109962;28;19946;-61
2022/08/21 04:41:15;;;;;;;;;;;;;;;22.27;100.00;97903.81;5110267;28;19983;-60
2022/08/21 04:43:42;;;;;;;;;;;;;;;22.27;100.00;97901.09;5110092;28;19932;-61
2022/08/21 04:46:08;;;;;;;;;;;;;;;22.33;100.00;97893.50;5110139;28;19988;-60
2022/08/21 04:48:36;;;;;;;;;;;;;;;22.38;100.00;97899.50;5110010;28;19968;-61
2022/08/21 04:51:04;;;;;;;;;;;;;;;22.33;100.00;97897.03;5110188;28;19924;-60
2022/08/21 04:53:32;;;;;;;;;;;;;;;22.39;100.00;97908.47;5109916;28;19924;-61
2022/08/21 04:56:01;;;;;;;;;;;;;;;22.38;100.00;97901.44;5132954;28;19981;-61
2022/08/21 04:58:30;;;;;;;;;;;;;;;22.21;100.00;97912.53;5118231;28;19978;-61
2022/08/21 05:00:58;;;;;;;;;;;;;;;22.23;100.00;97913.78;5109981;28;19947;-63
2022/08/21 05:03:25;;;;;;;;;;;;;;;21.97;100.00;97907.88;5109796;28;19924;-60
2022/08/21 05:05:53;;;;;;;;;;;;;;;22.06;100.00;97911.28;5109939;28;19924;-61
2022/08/21 05:08:22;;;;;;;;;;;;;;;22.06;100.00;97912.06;5109824;28;19924;-61
2022/08/21 05:10:49;;;;;;;;;;;;;;;22.21;100.00;97918.78;5100134;28;19924;-61
2022/08/21 05:13:16;;;;;;;;;;;;;;;22.26;100.00;97918.56;5109823;28;19948;-60
2022/08/21 05:15:42;;;;;;;;;;;;;;;22.30;100.00;97916.75;5119939;28;19935;-61
2022/08/21 05:18:09;;;;;;;;;;;;;;;22.26;100.00;97917.75;5122217;28;19927;-61
2022/08/21 05:20:35;;;;;;;;;;;;;;;22.25;100.00;97922.41;5122734;28;19920;-60
2022/08/21 05:23:07;;;;;;;;;;;;;;;22.30;100.00;97919.47;5125554;28;19931;-61
2022/08/21 05:25:34;;;;;;;;;;;;;;;22.31;100.00;97918.31;5139376;27;20016;-60
2022/08/21 05:28:00;;;;;;;;;;;;;;;22.29;100.00;97917.88;5122219;28;19947;-61
2022/08/21 05:30:26;;;;;;;;;;;;;;;22.33;100.00;97926.94;5121942;28;19920;-61
2022/08/21 05:32:56;;;;;;;;;;;;;;;22.23;100.00;97927.38;5125038;28;19923;-60
2022/08/21 05:35:23;;;;;;;;;;;;;;;22.26;100.00;97928.63;5107270;28;19970;-60
2022/08/21 05:37:49;;;;;;;;;;;;;;;22.15;100.00;97936.44;5122257;28;19930;-61
2022/08/21 05:40:18;;;;;;;;;;;;;;;21.84;100.00;97928.75;5121800;28;20020;-61
2022/08/21 05:42:44;;;;;;;;;;;;;;;21.72;100.00;97933.38;5123665;28;19924;-60
2022/08/21 05:45:11;;;;;;;;;;;;;;;21.75;100.00;97932.69;5125246;28;19920;-61
2022/08/21 05:47:37;;;;;;;;;;;;;;;21.64;100.00;97939.66;5123993;28;19928;-60
2022/08/21 05:50:04;;;;;;;;;;;;;;;21.33;100.00;97932.72;5121752;28;19930;-61
2022/08/21 05:52:31;;;;;;;;;;;;;;;21.01;100.00;97945.06;5121723;28;19924;-61
2022/08/21 05:54:57;;;;;;;;;;;;;;;20.79;100.00;97945.41;5139848;27;19955;-60
2022/08/21 05:57:25;;;;;;;;;;;;;;;20.65;100.00;97944.00;5125180;28;19931;-61
2022/08/21 05:59:51;;;;;;;;;;;;;;;20.33;100.00;97948.94;5104017;28;19953;-62
2022/08/21 06:02:18;;;;;;;;;;;;;;;20.56;100.00;97945.97;5121447;28;19920;-61
2022/08/21 06:04:44;;;;;;;;;;;;;;;20.46;100.00;97942.50;5123279;28;19924;-60
2022/08/21 06:07:11;;;;;;;;;;;;;;;20.44;100.00;97943.97;5124829;28;19920;-61
2022/08/21 06:09:37;;;;;;;;;;;;;;;20.36;100.00;97940.16;5123762;28;19995;-60
2022/08/21 06:12:04;;;;;;;;;;;;;;;20.40;100.00;97940.31;5121355;28;19948;-61
2022/08/21 06:14:32;;;;;;;;;;;;;;;20.44;100.00;97942.06;5121586;28;19924;-62
2022/08/21 06:17:02;;;;;;;;;;;;;;;20.51;100.00;97935.31;5124962;28;19963;-61
2022/08/21 06:19:28;;;;;;;;;;;;;;;20.70;100.00;97943.84;5124677;28;20713;-61
2022/08/21 06:21:54;;;;;;;;;;;;;;;20.68;100.00;97937.94;5103525;28;20011;-62
2022/08/21 06:24:21;;;;;;;;;;;;;;;20.46;100.00;97942.50;5133329;27;19995;-61
2022/08/21 06:26:47;;;;;;;;;;;;;;;20.41;100.00;97940.00;5125727;27;19924;-60
2022/08/21 06:29:16;;;;;;;;;;;;;;;20.40;100.00;97940.31;5124548;28;19924;-60
2022/08/21 06:31:44;;;;;;;;;;;;;;;20.12;100.00;97952.66;5122401;28;19924;-60
2022/08/21 06:34:10;;;;;;;;;;;;;;;20.11;100.00;97951.88;5121050;28;19954;-61
2022/08/21 06:36:37;;;;;;;;;;;;;;;20.45;100.00;97946.38;5103604;28;19924;-61
2022/08/21 06:39:04;;;;;;;;;;;;;;;20.83;100.00;97948.22;5124237;28;19927;-61
2022/08/21 06:41:31;;;;;;;;;;;;;;;21.06;100.00;97943.28;5123764;28;20157;-60
2022/08/21 06:43:57;;;;;;;;;;;;;;;21.00;100.00;97943.50;5120534;28;20606;-59
2022/08/21 06:46:24;;;;;;;;;;;;;;;20.50;100.00;97942.66;5102484;28;19924;-60
2022/08/21 06:48:52;;;;;;;;;;;;;;;20.84;100.00;97941.69;5123345;28;19927;-60
2022/08/21 06:51:18;;;;;;;;;;;;;;;21.07;100.00;97942.97;5123941;28;19927;-60
2022/08/21 06:53:45;;;;;;;;;;;;;;;21.12;100.00;97942.00;5123473;27;19966;-62
2022/08/21 06:56:12;;;;;;;;;;;;;;;20.79;100.00;97936.44;5132522;27;19931;-60
2022/08/21 06:58:38;;;;;;;;;;;;;;;20.66;100.00;97940.19;5121316;28;19974;-60
2022/08/21 07:01:05;;;;;;;;;;;;;;;20.71;100.00;97937.28;5105740;28;19951;-60
2022/08/21 07:03:32;;;;;;;;;;;;;;;20.91;100.00;97933.81;5123457;28;19923;-60
2022/08/21 07:05:59;;;;;;;;;;;;;;;21.09;100.00;97924.47;5120119;28;19927;-61
2022/08/21 07:08:27;;;;;;;;;;;;;;;21.18;100.00;97935.25;5120210;28;19974;-60
2022/08/21 07:10:54;;;;;;;;;;;;;;;21.30;100.00;97946.97;5123436;28;19967;-61
2022/08/21 07:13:20;;;;;;;;;;;;;;;21.17;100.00;97939.88;5123583;28;19956;-61
2022/08/21 07:15:46;;;;;;;;;;;;;;;20.75;100.00;97944.44;5121231;28;19923;-61
2022/08/21 07:18:13;;;;;;;;;;;;;;;20.60;100.00;97952.34;5119987;28;19951;-60
2022/08/21 07:20:39;;;;;;;;;;;;;;;20.83;100.00;97945.50;5121027;28;19967;-60
2022/08/21 07:23:10;;;;;;;;;;;;;;;20.65;100.00;97947.53;5123192;28;19927;-60
2022/08/21 07:25:36;;;;;;;;;;;;;;;20.95;100.00;97949.09;5136702;27;19966;-60
2022/08/21 07:28:03;;;;;;;;;;;;;;;21.19;100.00;97940.38;5119829;28;19970;-61
2022/08/21 07:30:30;;;;;;;;;;;;;;;21.01;100.00;97938.88;5119369;28;19999;-60
2022/08/21 07:32:56;;;;;;;;;;;;;;;21.20;100.00;97941.16;5111103;28;19925;-61
2022/08/21 07:35:23;;;;;;;;;;;;;;;21.37;100.00;97944.53;5111198;28;19956;-61
2022/08/21 07:37:49;;;;;;;;;;;;;;;21.52;100.00;97943.13;5110350;28;19988;-62
2022/08/21 07:40:18;;;;;;;;;;;;;;;21.37;100.00;97933.66;5111174;28;19962;-61
2022/08/21 07:42:45;;;;;;;;;;;;;;;21.00;100.00;97940.78;5110995;28;19951;-60
2022/08/21 07:45:12;;;;;;;;;;;;;;;21.28;100.00;97938.38;5111124;28;19924;-61
2022/08/21 07:47:39;;;;;;;;;;;;;;;21.42;100.00;97933.47;5110657;28;19928;-60
2022/08/21 07:50:06;;;;;;;;;;;;;;;21.23;100.00;97938.56;5110789;28;19962;-63
2022/08/21 07:52:33;;;;;;;;;;;;;;;21.19;100.00;97948.50;5110613;28;19924;-63
2022/08/21 07:54:59;;;;;;;;;;;;;;;21.33;100.00;97942.81;5129655;27;19960;-61
2022/08/21 07:57:27;;;;;;;;;;;;;;;21.60;100.00;97952.34;5122705;28;19941;-61
2022/08/21 07:59:54;;;;;;;;;;;;;;;21.82;100.00;97950.03;5119197;28;19928;-65
2022/08/21 08:02:24;;;;;;;;;;;;;;;21.82;100.00;97941.06;5119110;28;19962;-61
2022/08/21 08:04:51;;;;;;;;;;;;;;;21.49;100.00;97941.88;5121968;28;19963;-62
2022/08/21 08:07:18;;;;;;;;;;;;;;;21.28;100.00;97943.00;5122691;28;19924;-61
2022/08/21 08:09:44;;;;;;;;;;;;;;;21.18;100.00;97938.75;5120584;28;19927;-61
2022/08/21 08:12:10;;;;;;;;;;;;;;;21.26;100.00;97948.75;5118900;28;20564;-61
2022/08/21 08:14:38;;;;;;;;;;;;;;;21.02;100.00;97943.16;5119553;28;19924;-61
2022/08/21 08:17:05;;;;;;;;;;;;;;;20.92;100.00;97946.28;5104293;28;20603;-61
2022/08/21 08:19:31;;;;;;;;;;;;;;;21.00;100.00;97954.38;5121991;28;19924;-60
2022/08/21 08:21:57;;;;;;;;;;;;;;;20.93;100.00;97945.94;5118830;28;19936;-60
2022/08/21 08:24:24;;;;;;;;;;;;;;;20.69;100.00;97951.19;5131461;27;19935;-61
2022/08/21 08:26:50;;;;;;;;;;;;;;;20.42;100.00;97955.13;5122838;28;20617;-62
2022/08/21 08:29:16;;;;;;;;;;;;;;;20.40;100.00;97949.25;5122199;28;20381;-61
2022/08/21 08:31:44;;;;;;;;;;;;;;;20.48;100.00;97952.25;5120244;28;20022;-62
2022/08/21 08:34:10;;;;;;;;;;;;;;;20.38;100.00;97954.22;5118658;28;19924;-61
2022/08/21 08:36:37;;;;;;;;;;;;;;;20.29;100.00;97956.16;5119226;28;19924;-60
2022/08/21 08:39:05;;;;;;;;;;;;;;;20.33;100.00;97961.72;5121955;28;19955;-61
2022/08/21 08:41:33;;;;;;;;;;;;;;;20.54;100.00;97956.38;5121808;28;20300;-61
2022/08/21 08:44:00;;;;;;;;;;;;;;;20.64;100.00;97956.00;5118539;28;19931;-61
2022/08/21 08:46:30;;;;;;;;;;;;;;;20.60;100.00;97960.50;5118656;28;19963;-60
2022/08/21 08:49:02;;;;;;;;;;;;;;;20.81;100.00;97950.47;5100890;28;19931;-61
2022/08/21 08:51:35;;;;;;;;;;;;;;;20.90;100.00;97962.88;5121735;28;19983;-60
2022/08/21 08:54:05;;;;;;;;;;;;;;;21.09;100.00;97962.47;5129259;27;19923;-60
2022/08/21 08:56:33;;;;;;;;;;;;;;;21.03;100.00;97958.34;5129301;27;19924;-61
2022/08/21 08:59:02;;;;;;;;;;;;;;;21.17;100.00;97956.19;5126028;28;19937;-61
2022/08/21 09:01:29;;;;;;;;;;;;;;;21.35;100.00;97963.06;5107836;28;19947;-61
2022/08/21 09:03:57;;;;;;;;;;;;;;;21.03;100.00;97958.34;5122446;28;19920;-61
2022/08/21 09:06:32;;;;;;;;;;;;;;;20.91;100.00;97956.34;5122604;28;19970;-61
2022/08/21 09:09:03;;;;;;;;;;;;;;;20.89;100.00;97965.91;5122831;28;19952;-60
2022/08/21 09:11:32;;;;;;;;;;;;;;;21.15;100.00;97965.78;5122565;28;19939;-61
2022/08/21 09:14:05;;;;;;;;;;;;;;;21.25;100.00;97955.34;5122519;28;19927;-60
2022/08/21 09:16:35;;;;;;;;;;;;;;;21.32;100.00;97960.25;5122610;28;19931;-65
2022/08/21 09:19:05;;;;;;;;;;;;;;;21.39;100.00;97958.56;5125897;28;19987;-60
2022/08/21 09:21:38;;;;;;;;;;;;;;;21.20;100.00;97958.22;5125453;28;19935;-60
2022/08/21 09:24:13;;;;;;;;;;;;;;;21.47;100.00;97955.00;5129727;27;20022;-60
2022/08/21 09:26:45;;;;;;;;;;;;;;;21.63;100.00;97957.91;5127773;27;19924;-61
2022/08/21 09:29:12;;;;;;;;;;;;;;;21.14;100.00;97961.47;5125564;28;19953;-61
2022/08/21 09:31:39;;;;;;;;;;;;;;;21.11;100.00;97962.94;5124348;28;20003;-61
2022/08/21 09:34:07;;;;;;;;;;;;;;;21.54;100.00;97955.25;5121997;28;19967;-60
2022/08/21 09:36:37;;;;;;;;;;;;;;;21.61;100.00;97962.06;5122018;28;19979;-61
2022/08/21 09:39:04;;;;;;;;;;;;;;;21.46;100.00;97960.75;5125149;28;19946;-61
2022/08/21 09:41:31;;;;;;;;;;;;;;;21.55;100.00;97964.19;5125181;28;20062;-61
2022/08/21 09:43:58;;;;;;;;;;;;;;;21.41;100.00;97953.63;5121812;28;19987;-61
2022/08/21 09:46:26;;;;;;;;;;;;;;;21.32;100.00;97960.25;5121691;28;19987;-62
2022/08/21 09:48:53;;;;;;;;;;;;;;;21.63;100.00;97960.63;5124764;28;19923;-60
2022/08/21 09:51:21;;;;;;;;;;;;;;;21.48;100.00;97962.00;5107012;28;19973;-62
2022/08/21 09:53:51;;;;;;;;;;;;;;;21.39;100.00;97947.69;5125293;27;19943;-61
2022/08/21 09:59:13;;;;;;;;;;;;;;;21.34;100.00;97956.06;5121485;28;20399;-61
2022/08/21 10:01:43;;;;;;;;;;;;;;;21.44;100.00;97950.25;5121999;28;19928;-61
2022/08/21 10:04:10;;;;;;;;;;;;;;;21.48;100.00;97958.50;5124935;28;19958;-60
2022/08/21 10:06:37;;;;;;;;;;;;;;;21.42;100.00;97949.75;5123887;28;20070;-61
2022/08/21 10:09:06;;;;;;;;;;;;;;;21.30;100.00;97952.41;5121567;28;19931;-60
2022/08/21 10:11:34;;;;;;;;;;;;;;;21.45;100.00;97957.25;5121929;28;20004;-60
2022/08/21 10:14:06;;;;;;;;;;;;;;;21.67;100.00;97947.13;5125057;28;19924;-60
2022/08/21 10:16:38;;;;;;;;;;;;;;;21.68;100.00;97946.03;5124234;28;19924;-60
2022/08/21 10:19:13;;;;;;;;;;;;;;;21.79;100.00;97945.25;5121019;28;19971;-60
2022/08/21 10:21:43;;;;;;;;;;;;;;;21.71;100.00;97943.44;5122068;28;19967;-60
2022/08/21 10:24:18;;;;;;;;;;;;;;;22.06;100.00;97938.47;5128961;27;19919;-61
2022/08/21 10:26:49;;;;;;;;;;;;;;;22.29;100.00;97942.34;5107874;28;19959;-60
2022/08/21 10:29:25;;;;;;;;;;;;;;;22.33;100.00;97946.00;5124362;28;19924;-61
2022/08/21 10:31:55;;;;;;;;;;;;;;;22.62;100.00;97933.31;5121432;28;19928;-61
2022/08/21 10:34:30;;;;;;;;;;;;;;;22.81;100.00;97926.19;5120725;28;19924;-60
2022/08/21 10:37:02;;;;;;;;;;;;;;;22.87;100.00;97919.34;5111789;28;19924;-61
2022/08/21 10:39:33;;;;;;;;;;;;;;;22.74;100.00;97925.19;5111796;28;20158;-60
2022/08/21 10:42:08;;;;;;;;;;;;;;;22.71;100.00;97920.41;5111811;28;19987;-61
2022/08/21 10:44:39;;;;;;;;;;;;;;;22.69;100.00;97919.94;5120531;28;19924;-61
2022/08/21 10:47:09;;;;;;;;;;;;;;;22.67;100.00;97924.94;5123952;28;20482;-61
2022/08/21 10:49:39;;;;;;;;;;;;;;;22.80;100.00;97913.72;5123003;28;19924;-61
2022/08/21 10:52:17;;;;;;;;;;;;;;;22.66;100.00;97915.19;5120226;28;19974;-62
2022/08/21 10:54:46;;;;;;;;;;;;;;;22.58;100.00;97925.84;5137012;27;19962;-62
2022/08/21 10:57:23;;;;;;;;;;;;;;;22.97;100.00;97923.53;5123994;28;19977;-61
2022/08/21 10:59:53;;;;;;;;;;;;;;;23.16;100.00;97904.66;5121108;28;19970;-61
2022/08/21 11:02:21;;;;;;;;;;;;;;;23.25;100.00;97909.97;5120271;28;19931;-61
2022/08/21 11:04:53;;;;;;;;;;;;;;;23.17;100.00;97910.91;5122495;28;19920;-62
2022/08/21 11:07:22;;;;;;;;;;;;;;;23.23;100.00;97907.59;5105612;28;19924;-62
2022/08/21 11:09:50;;;;;;;;;;;;;;;23.36;100.00;97906.44;5121094;28;19991;-61
2022/08/21 11:12:23;;;;;;;;;;;;;;;23.32;100.00;97902.81;5119786;28;19924;-61
2022/08/21 11:14:52;;;;;;;;;;;;;;;23.27;100.00;97900.34;5122205;28;19940;-62
2022/08/21 11:17:21;;;;;;;;;;;;;;;22.99;100.00;97904.94;5123452;28;19923;-61
2022/08/21 11:19:51;;;;;;;;;;;;;;;22.79;100.00;97908.59;5120952;28;19991;-61
2022/08/21 11:22:20;;;;;;;;;;;;;;;22.91;100.00;97905.84;5120002;28;19980;-61
2022/08/21 11:24:49;;;;;;;;;;;;;;;23.00;100.00;97896.41;5136983;27;20034;-60
2022/08/21 11:27:21;;;;;;;;;;;;;;;23.20;100.00;97891.94;5123223;28;19924;-61
2022/08/21 11:29:49;;;;;;;;;;;;;;;23.24;100.00;97892.81;5120625;28;19924;-61
2022/08/21 11:32:30;;;;;;;;;;;;;;;23.30;100.00;97887.94;5119663;28;19955;-60
2022/08/21 11:35:02;;;;;;;;;;;;;;;23.53;100.00;97884.34;5111435;28;19924;-61
2022/08/21 11:37:37;;;;;;;;;;;;;;;23.51;100.00;97877.66;5111018;28;19924;-61
2022/08/21 11:40:06;;;;;;;;;;;;;;;23.29;100.00;97876.25;5110929;28;19946;-61
2022/08/21 11:42:39;;;;;;;;;;;;;;;23.55;100.00;97870.38;5119535;28;19920;-61
2022/08/21 11:45:14;;;;;;;;;;;;;;;23.71;100.00;97870.41;5123008;28;20023;-62
2022/08/21 11:47:46;;;;;;;;;;;;;;;23.64;100.00;97866.34;5121555;28;19924;-61
2022/08/21 11:50:15;;;;;;;;;;;;;;;23.55;100.00;97873.13;5101478;28;19963;-61
2022/08/21 11:52:45;;;;;;;;;;;;;;;23.54;100.00;97868.78;5120920;28;19935;-61
2022/08/21 11:55:14;;;;;;;;;;;;;;;23.57;100.00;97863.44;5124432;28;19991;-61
2022/08/21 11:57:47;;;;;;;;;;;;;;;23.47;100.00;97861.22;5119203;28;19999;-62
2022/08/21 12:00:17;;;;;;;;;;;;;;;23.53;100.00;97862.53;5119229;28;19953;-62
2022/08/21 12:02:46;;;;;;;;;;;;;;;23.66;100.00;97863.28;5120740;28;19974;-60
2022/08/21 12:05:23;;;;;;;;;;;;;;;23.71;100.00;97864.94;5122869;28;20064;-61
2022/08/21 12:08:00;;;;;;;;;;;;;;;23.67;100.00;97859.41;5120289;28;19928;-61
2022/08/21 12:10:32;;;;;;;;;;;;;;;23.76;100.00;97856.53;5119027;28;19931;-61
2022/08/21 12:13:06;;;;;;;;;;;;;;;23.79;100.00;97856.63;5119465;28;19951;-61
2022/08/21 12:15:32;;;;;;;;;;;;;;;23.94;100.00;97853.09;5119089;28;19971;-60
2022/08/21 12:18:00;;;;;;;;;;;;;;;24.04;100.00;97854.53;5122691;28;19928;-60
2022/08/21 12:20:34;;;;;;;;;;;;;;;24.04;100.00;97857.25;5122263;28;19959;-61
2022/08/21 12:23:04;;;;;;;;;;;;;;;24.03;100.00;97851.00;5119000;28;19963;-62
2022/08/21 12:25:37;;;;;;;;;;;;;;;24.01;100.00;97845.13;5118278;28;19963;-62
2022/08/21 12:28:08;;;;;;;;;;;;;;;23.92;100.00;97835.50;5110243;28;19997;-62
2022/08/21 12:30:35;;;;;;;;;;;;;;;23.98;100.00;97831.38;5110102;28;19987;-61
2022/08/21 12:33:03;;;;;;;;;;;;;;;23.87;100.00;97830.31;5110283;28;19963;-61
2022/08/21 12:35:33;;;;;;;;;;;;;;;23.94;100.00;97842.19;5110045;28;19924;-61
2022/08/21 12:38:03;;;;;;;;;;;;;;;24.05;100.00;97828.81;5109957;28;19924;-61
2022/08/21 12:40:32;;;;;;;;;;;;;;;24.11;100.00;97827.44;5118373;28;20029;-62
2022/08/21 12:42:59;;;;;;;;;;;;;;;24.18;100.00;97824.88;5118608;28;19932;-62